createdAt,value
2018-07-05T00:00:52.474Z,4.60
2018-07-05T00:01:52.613Z,4.30
2018-07-05T00:02:52.756Z,4.30
2018-07-05T00:03:52.895Z,4.40
2018-07-05T00:04:53.046Z,4.50
2018-07-05T00:05:53.190Z,5.00
2018-07-05T00:06:53.327Z,4.60
2018-07-05T00:07:53.463Z,4.30
2018-07-05T00:08:53.614Z,4.70
2018-07-05T00:09:53.754Z,4.50
2018-07-05T00:10:53.895Z,4.80
2018-07-05T00:11:54.038Z,4.90
2018-07-05T00:12:54.185Z,4.70
2018-07-05T00:13:54.323Z,4.50
2018-07-05T00:14:54.452Z,4.50
2018-07-05T00:15:54.591Z,5.20
2018-07-05T00:16:54.749Z,4.90
2018-07-05T00:17:54.868Z,4.50
2018-07-05T00:18:55.024Z,4.70
2018-07-05T00:19:55.165Z,4.50
2018-07-05T00:20:55.308Z,4.60
2018-07-05T00:21:55.458Z,4.60
2018-07-05T00:22:55.599Z,4.30
2018-07-05T00:23:55.740Z,4.60
2018-07-05T00:24:55.880Z,4.60
2018-07-05T00:25:56.025Z,4.60
2018-07-05T00:26:56.165Z,6.20
2018-07-05T00:27:56.306Z,6.00
2018-07-05T00:28:56.458Z,5.10
2018-07-05T00:29:56.604Z,4.90
2018-07-05T00:30:57.552Z,4.50
2018-07-05T00:31:56.898Z,4.70
2018-07-05T00:32:57.060Z,4.50
2018-07-05T00:33:57.278Z,4.80
2018-07-05T00:34:57.306Z,4.60
2018-07-05T00:35:58.074Z,4.30
2018-07-05T00:36:57.619Z,5.20
2018-07-05T00:37:57.769Z,5.10
2018-07-05T00:38:57.918Z,4.90
2018-07-05T00:39:58.053Z,4.80
2018-07-05T00:40:58.232Z,4.60
2018-07-05T00:41:58.336Z,5.20
2018-07-05T00:42:58.474Z,5.20
2018-07-05T00:43:58.616Z,4.80
2018-07-05T00:44:58.758Z,4.60
2018-07-05T00:45:58.909Z,4.60
2018-07-05T00:46:59.041Z,4.50
2018-07-05T00:47:59.194Z,4.60
2018-07-05T00:48:59.344Z,4.70
2018-07-05T00:49:59.472Z,5.00
2018-07-05T00:50:59.610Z,4.50
2018-07-05T00:51:59.758Z,4.80
2018-07-05T00:52:59.888Z,4.70
2018-07-05T00:54:00.026Z,4.90
2018-07-05T00:55:00.166Z,5.10
2018-07-05T00:56:00.313Z,5.20
2018-07-05T00:57:00.457Z,5.30
2018-07-05T00:58:00.598Z,4.90
2018-07-05T00:59:00.745Z,5.10
2018-07-05T01:00:00.887Z,6.00
2018-07-05T01:01:01.030Z,5.80
2018-07-05T01:02:01.168Z,5.70
2018-07-05T01:03:01.306Z,5.40
2018-07-05T01:04:01.460Z,5.40
2018-07-05T01:05:01.598Z,5.40
2018-07-05T01:06:01.753Z,5.40
2018-07-05T01:07:01.875Z,5.20
2018-07-05T01:08:02.013Z,4.90
2018-07-05T01:09:02.158Z,5.60
2018-07-05T01:10:02.302Z,5.00
2018-07-05T01:11:02.442Z,5.20
2018-07-05T01:12:02.597Z,4.70
2018-07-05T01:13:02.734Z,4.90
2018-07-05T01:14:02.876Z,4.60
2018-07-05T01:15:03.016Z,4.90
2018-07-05T01:16:03.159Z,5.10
2018-07-05T01:17:03.300Z,5.00
2018-07-05T01:18:03.444Z,5.30
2018-07-05T01:19:03.595Z,5.30
2018-07-05T01:20:03.731Z,5.00
2018-07-05T01:21:03.869Z,5.10
2018-07-05T01:22:04.004Z,5.00
2018-07-05T01:23:04.227Z,5.10
2018-07-05T01:24:04.352Z,5.00
2018-07-05T01:25:04.500Z,4.80
2018-07-05T01:26:04.660Z,5.50
2018-07-05T01:27:04.810Z,6.90
2018-07-05T01:28:04.962Z,6.20
2018-07-05T01:29:05.111Z,5.50
2018-07-05T01:30:05.246Z,5.20
2018-07-05T01:31:05.385Z,5.20
2018-07-05T01:32:05.531Z,5.10
2018-07-05T01:33:05.686Z,5.20
2018-07-05T01:34:05.818Z,5.60
2018-07-05T01:35:05.956Z,5.70
2018-07-05T01:36:06.107Z,6.30
2018-07-05T01:37:06.278Z,5.20
2018-07-05T01:38:06.417Z,5.60
2018-07-05T01:39:06.559Z,5.30
2018-07-05T01:40:06.702Z,5.60
2018-07-05T01:41:06.884Z,5.70
2018-07-05T01:42:07.059Z,6.00
2018-07-05T01:43:07.073Z,5.40
2018-07-05T01:44:07.208Z,5.50
2018-07-05T01:45:07.357Z,6.00
2018-07-05T01:46:07.597Z,6.00
2018-07-05T01:47:07.606Z,5.80
2018-07-05T01:48:07.755Z,5.80
2018-07-05T01:49:07.907Z,6.10
2018-07-05T01:50:08.042Z,6.20
2018-07-05T01:51:08.183Z,6.30
2018-07-05T01:52:08.328Z,6.20
2018-07-05T01:53:08.472Z,6.10
2018-07-05T01:54:08.609Z,6.20
2018-07-05T01:55:08.749Z,6.70
2018-07-05T01:56:08.898Z,6.30
2018-07-05T01:57:09.079Z,6.20
2018-07-05T01:58:09.219Z,6.30
2018-07-05T01:59:09.357Z,6.10
2018-07-05T02:00:09.494Z,6.10
2018-07-05T02:01:09.668Z,5.70
2018-07-05T02:02:09.786Z,5.80
2018-07-05T02:03:09.925Z,6.40
2018-07-05T02:04:10.066Z,6.20
2018-07-05T02:05:10.244Z,6.40
2018-07-05T02:06:10.357Z,6.40
2018-07-05T02:07:10.560Z,6.10
2018-07-05T02:08:10.678Z,5.90
2018-07-05T02:09:10.817Z,5.70
2018-07-05T02:10:10.973Z,6.10
2018-07-05T02:11:11.159Z,6.20
2018-07-05T02:12:11.267Z,5.70
2018-07-05T02:13:11.430Z,5.80
2018-07-05T02:14:11.574Z,5.90
2018-07-05T02:15:11.719Z,5.90
2018-07-05T02:16:11.850Z,6.20
2018-07-05T02:17:11.997Z,6.00
2018-07-05T02:18:12.139Z,6.20
2018-07-05T02:19:12.314Z,5.90
2018-07-05T02:20:12.437Z,5.70
2018-07-05T02:21:12.574Z,6.20
2018-07-05T02:22:12.705Z,5.90
2018-07-05T02:23:12.961Z,6.40
2018-07-05T02:24:12.979Z,6.80
2018-07-05T02:25:13.116Z,6.30
2018-07-05T02:26:13.262Z,6.00
2018-07-05T02:27:13.508Z,6.30
2018-07-05T02:28:13.513Z,6.20
2018-07-05T02:29:13.656Z,6.60
2018-07-05T02:30:13.820Z,6.20
2018-07-05T02:31:13.949Z,6.20
2018-07-05T02:32:14.089Z,6.20
2018-07-05T02:33:14.243Z,6.20
2018-07-05T02:34:14.379Z,6.10
2018-07-05T02:35:14.521Z,5.90
2018-07-05T02:36:14.666Z,6.40
2018-07-05T02:37:14.836Z,6.20
2018-07-05T02:38:14.970Z,5.90
2018-07-05T02:39:15.113Z,6.10
2018-07-05T02:40:15.257Z,5.90
2018-07-05T02:41:15.445Z,6.00
2018-07-05T02:42:15.588Z,6.60
2018-07-05T02:43:15.732Z,6.20
2018-07-05T02:44:15.869Z,6.20
2018-07-05T02:45:16.023Z,6.60
2018-07-05T02:46:16.193Z,6.50
2018-07-05T02:47:16.329Z,7.10
2018-07-05T02:48:16.479Z,7.00
2018-07-05T02:49:16.625Z,7.10
2018-07-05T02:50:16.761Z,7.20
2018-07-05T02:51:16.906Z,6.80
2018-07-05T02:52:17.048Z,7.00
2018-07-05T02:53:17.213Z,7.00
2018-07-05T02:54:17.369Z,7.00
2018-07-05T02:55:17.507Z,6.80
2018-07-05T02:56:17.651Z,6.40
2018-07-05T02:57:17.814Z,6.70
2018-07-05T02:58:17.953Z,6.70
2018-07-05T02:59:18.100Z,6.50
2018-07-05T03:00:18.239Z,7.30
2018-07-05T03:01:18.405Z,7.20
2018-07-05T03:02:18.647Z,6.40
2018-07-05T03:03:18.661Z,6.90
2018-07-05T03:04:18.807Z,6.70
2018-07-05T03:05:18.949Z,6.80
2018-07-05T03:06:19.086Z,6.80
2018-07-05T03:07:19.233Z,7.30
2018-07-05T03:08:19.386Z,7.50
2018-07-05T03:09:19.516Z,7.10
2018-07-05T03:10:19.654Z,7.10
2018-07-05T03:11:19.791Z,7.70
2018-07-05T03:12:19.965Z,6.90
2018-07-05T03:13:20.110Z,6.70
2018-07-05T03:14:20.245Z,7.30
2018-07-05T03:15:20.405Z,7.00
2018-07-05T03:16:20.591Z,6.80
2018-07-05T03:17:20.726Z,7.10
2018-07-05T03:18:20.866Z,6.40
2018-07-05T03:19:21.036Z,7.00
2018-07-05T03:20:21.173Z,6.90
2018-07-05T03:21:21.316Z,7.10
2018-07-05T03:22:21.451Z,6.80
2018-07-05T03:23:21.614Z,6.50
2018-07-05T03:24:21.757Z,6.70
2018-07-05T03:25:21.891Z,6.40
2018-07-05T03:26:22.033Z,6.70
2018-07-05T03:27:22.195Z,6.70
2018-07-05T03:28:22.327Z,6.40
2018-07-05T03:29:22.470Z,6.80
2018-07-05T03:30:22.610Z,6.60
2018-07-05T03:31:22.748Z,6.50
2018-07-05T03:32:22.892Z,7.60
2018-07-05T03:33:23.028Z,7.40
2018-07-05T03:34:23.166Z,7.60
2018-07-05T03:35:23.338Z,7.60
2018-07-05T03:36:23.473Z,7.90
2018-07-05T03:37:23.619Z,7.60
2018-07-05T03:38:23.755Z,7.10
2018-07-05T03:39:23.950Z,7.40
2018-07-05T03:40:24.062Z,7.30
2018-07-05T03:41:24.217Z,6.90
2018-07-05T03:42:24.366Z,7.40
2018-07-05T03:43:24.519Z,7.50
2018-07-05T03:44:24.654Z,7.60
2018-07-05T03:45:24.797Z,7.00
2018-07-05T03:46:24.951Z,7.30
2018-07-05T03:47:25.196Z,7.80
2018-07-05T03:48:25.213Z,7.40
2018-07-05T03:49:25.369Z,7.40
2018-07-05T03:50:25.527Z,7.00
2018-07-05T03:51:25.735Z,7.40
2018-07-05T03:52:25.752Z,7.30
2018-07-05T03:53:25.889Z,7.00
2018-07-05T03:54:26.061Z,7.20
2018-07-05T03:55:26.194Z,7.00
2018-07-05T03:56:26.331Z,6.50
2018-07-05T03:57:26.472Z,6.90
2018-07-05T03:58:26.624Z,6.70
2018-07-05T03:59:26.766Z,6.70
2018-07-05T04:00:26.907Z,6.90
2018-07-05T04:01:27.055Z,7.50
2018-07-05T04:02:27.286Z,6.80
2018-07-05T04:03:27.304Z,7.10
2018-07-05T04:04:27.497Z,7.00
2018-07-05T04:05:27.614Z,7.40
2018-07-05T04:06:27.748Z,7.10
2018-07-05T04:07:27.885Z,7.30
2018-07-05T04:08:28.022Z,7.70
2018-07-05T04:09:28.162Z,7.90
2018-07-05T04:10:28.302Z,7.50
2018-07-05T04:11:28.439Z,7.60
2018-07-05T04:12:28.603Z,7.70
2018-07-05T04:13:28.739Z,8.00
2018-07-05T04:14:28.879Z,8.30
2018-07-05T04:15:29.019Z,8.10
2018-07-05T04:16:29.161Z,8.10
2018-07-05T04:17:29.306Z,8.10
2018-07-05T04:18:29.445Z,7.60
2018-07-05T04:19:29.586Z,7.30
2018-07-05T04:20:29.746Z,8.10
2018-07-05T04:21:29.883Z,7.60
2018-07-05T04:22:30.030Z,7.80
2018-07-05T04:23:30.167Z,7.90
2018-07-05T04:24:30.313Z,7.60
2018-07-05T04:25:30.447Z,8.00
2018-07-05T04:26:30.587Z,8.50
2018-07-05T04:27:30.729Z,8.20
2018-07-05T04:28:30.870Z,8.20
2018-07-05T04:29:31.017Z,8.20
2018-07-05T04:30:31.158Z,8.80
2018-07-05T04:31:31.303Z,8.50
2018-07-05T04:32:31.438Z,8.70
2018-07-05T04:33:31.575Z,8.80
2018-07-05T04:34:31.714Z,8.30
2018-07-05T04:35:31.852Z,9.00
2018-07-05T04:36:31.996Z,8.50
2018-07-05T04:37:32.143Z,8.20
2018-07-05T04:38:32.283Z,8.50
2018-07-05T04:39:33.257Z,8.50
2018-07-05T04:40:32.539Z,8.50
2018-07-05T04:41:32.675Z,8.60
2018-07-05T04:42:32.840Z,8.50
2018-07-05T04:43:32.976Z,9.50
2018-07-05T04:44:33.116Z,9.10
2018-07-05T04:45:33.261Z,9.50
2018-07-05T04:46:33.406Z,9.40
2018-07-05T04:47:33.542Z,9.00
2018-07-05T04:48:33.678Z,9.70
2018-07-05T04:49:33.820Z,9.00
2018-07-05T04:50:33.965Z,9.30
2018-07-05T04:51:34.097Z,8.80
2018-07-05T04:52:34.238Z,9.20
2018-07-05T04:53:34.379Z,9.00
2018-07-05T04:54:34.524Z,9.20
2018-07-05T04:55:34.761Z,9.00
2018-07-05T04:56:34.816Z,9.20
2018-07-05T04:57:34.956Z,8.70
2018-07-05T04:58:35.115Z,8.80
2018-07-05T05:01:07.818Z,7.80
2018-07-05T05:02:07.961Z,8.50
2018-07-05T05:03:08.101Z,8.50
2018-07-05T05:04:08.242Z,8.80
2018-07-05T05:05:08.398Z,8.60
2018-07-05T05:06:08.537Z,8.40
2018-07-05T05:07:08.679Z,8.60
2018-07-05T05:08:08.821Z,8.70
2018-07-05T05:09:08.961Z,9.70
2018-07-05T05:10:09.101Z,9.40
2018-07-05T05:11:09.242Z,10.60
2018-07-05T05:12:09.381Z,10.80
2018-07-05T05:13:09.519Z,11.30
2018-07-05T05:14:09.668Z,11.70
2018-07-05T05:15:09.815Z,10.50
2018-07-05T05:16:09.962Z,10.50
2018-07-05T05:17:10.098Z,12.10
2018-07-05T05:18:10.235Z,12.80
2018-07-05T05:19:10.374Z,12.60
2018-07-05T05:20:10.514Z,12.00
2018-07-05T05:21:10.655Z,12.30
2018-07-05T05:22:10.792Z,11.20
2018-07-05T05:23:10.932Z,10.20
2018-07-05T05:24:11.097Z,10.00
2018-07-05T05:25:11.228Z,10.60
2018-07-05T05:26:11.417Z,9.50
2018-07-05T05:27:11.513Z,9.60
2018-07-05T05:28:11.650Z,9.30
2018-07-05T05:29:11.780Z,10.10
2018-07-05T05:30:11.917Z,9.50
2018-07-05T05:31:12.061Z,9.60
2018-07-05T05:32:12.221Z,9.90
2018-07-05T05:33:12.355Z,9.40
2018-07-05T05:34:12.500Z,9.70
2018-07-05T05:35:12.646Z,9.40
2018-07-05T05:36:12.815Z,9.50
2018-07-05T05:37:12.943Z,9.10
2018-07-05T05:38:13.087Z,8.90
2018-07-05T05:39:13.230Z,9.20
2018-07-05T05:40:13.387Z,9.30
2018-07-05T05:41:13.527Z,9.00
2018-07-05T05:42:13.669Z,8.70
2018-07-05T05:43:13.807Z,9.70
2018-07-05T05:44:13.960Z,9.40
2018-07-05T05:45:14.101Z,9.00
2018-07-05T05:46:14.234Z,8.90
2018-07-05T05:47:14.375Z,9.00
2018-07-05T05:48:14.596Z,8.90
2018-07-05T05:49:14.741Z,8.80
2018-07-05T05:50:14.756Z,8.50
2018-07-05T05:51:14.897Z,8.90
2018-07-05T05:52:15.071Z,8.90
2018-07-05T05:53:15.197Z,9.40
2018-07-05T05:54:15.338Z,10.60
2018-07-05T05:55:15.485Z,10.20
2018-07-05T05:56:15.641Z,8.80
2018-07-05T05:57:15.781Z,8.30
2018-07-05T05:58:15.919Z,8.10
2018-07-05T05:59:16.062Z,8.00
2018-07-05T06:00:16.189Z,7.90
2018-07-05T06:01:16.323Z,8.10
2018-07-05T06:02:16.464Z,7.90
2018-07-05T06:03:16.608Z,7.90
2018-07-05T06:04:16.783Z,8.10
2018-07-05T06:05:16.911Z,7.50
2018-07-05T06:06:17.055Z,8.20
2018-07-05T06:07:17.195Z,8.40
2018-07-05T06:08:17.395Z,8.80
2018-07-05T06:09:17.490Z,9.20
2018-07-05T06:10:17.630Z,9.20
2018-07-05T06:11:17.780Z,9.20
2018-07-05T06:12:17.933Z,8.90
2018-07-05T06:13:18.071Z,9.10
2018-07-05T06:14:18.216Z,8.20
2018-07-05T06:15:18.446Z,7.80
2018-07-05T06:16:18.496Z,8.40
2018-07-05T06:17:18.641Z,8.30
2018-07-05T06:18:18.802Z,8.10
2018-07-05T06:19:18.938Z,8.60
2018-07-05T06:20:19.079Z,8.50
2018-07-05T06:21:19.217Z,8.50
2018-07-05T06:22:19.371Z,8.40
2018-07-05T06:23:19.512Z,8.40
2018-07-05T06:24:19.656Z,7.90
2018-07-05T06:25:19.815Z,7.90
2018-07-05T06:26:19.957Z,7.30
2018-07-05T06:27:20.105Z,7.80
2018-07-05T06:28:20.243Z,8.30
2018-07-05T06:29:20.397Z,8.50
2018-07-05T06:30:20.540Z,8.40
2018-07-05T06:31:20.683Z,8.60
2018-07-05T06:32:20.847Z,8.10
2018-07-05T06:33:20.982Z,8.00
2018-07-05T06:34:21.123Z,8.10
2018-07-05T06:35:21.271Z,7.90
2018-07-05T06:36:21.419Z,7.40
2018-07-05T06:37:21.554Z,7.50
2018-07-05T06:38:21.702Z,7.50
2018-07-05T06:39:21.848Z,7.80
2018-07-05T06:40:21.985Z,9.20
2018-07-05T06:41:22.124Z,7.00
2018-07-05T06:42:22.270Z,6.70
2018-07-05T06:43:22.433Z,7.10
2018-07-05T06:44:22.573Z,7.40
2018-07-05T06:45:22.742Z,7.30
2018-07-05T06:46:22.881Z,7.40
2018-07-05T06:47:23.036Z,7.20
2018-07-05T06:48:23.186Z,7.10
2018-07-05T06:49:23.369Z,7.20
2018-07-05T06:50:23.464Z,7.40
2018-07-05T06:51:23.629Z,7.60
2018-07-05T06:52:23.770Z,7.60
2018-07-05T06:53:23.910Z,7.70
2018-07-05T06:54:24.052Z,7.10
2018-07-05T06:55:24.203Z,6.80
2018-07-05T06:56:24.326Z,7.00
2018-07-05T06:57:24.463Z,7.00
2018-07-05T06:58:24.606Z,6.60
2018-07-05T06:59:24.751Z,7.10
2018-07-05T07:00:24.883Z,7.10
2018-07-05T07:01:25.029Z,7.60
2018-07-05T07:02:25.167Z,7.40
2018-07-05T07:03:25.344Z,8.00
2018-07-05T07:04:25.480Z,7.60
2018-07-05T07:05:25.625Z,8.00
2018-07-05T07:06:25.761Z,8.50
2018-07-05T07:07:25.919Z,9.00
2018-07-05T07:08:26.053Z,8.10
2018-07-05T07:09:26.200Z,7.70
2018-07-05T07:10:26.360Z,7.30
2018-07-05T07:11:26.496Z,7.20
2018-07-05T07:12:26.648Z,7.90
2018-07-05T07:13:26.779Z,7.60
2018-07-05T07:14:26.941Z,7.30
2018-07-05T07:15:27.082Z,6.90
2018-07-05T07:16:27.229Z,7.30
2018-07-05T07:17:27.390Z,6.70
2018-07-05T07:18:27.532Z,7.20
2018-07-05T07:19:27.676Z,7.00
2018-07-05T07:20:28.807Z,6.50
2018-07-05T07:21:28.012Z,7.00
2018-07-05T07:22:28.121Z,7.70
2018-07-05T07:23:28.410Z,7.50
2018-07-05T07:24:28.393Z,7.70
2018-07-05T07:25:28.514Z,7.90
2018-07-05T07:26:28.666Z,8.10
2018-07-05T07:27:28.808Z,7.00
2018-07-05T07:28:28.947Z,7.40
2018-07-05T07:29:29.083Z,7.80
2018-07-05T07:30:29.225Z,7.50
2018-07-05T07:31:29.466Z,7.90
2018-07-05T07:32:29.508Z,7.70
2018-07-05T07:33:29.649Z,7.10
2018-07-05T07:34:29.795Z,8.10
2018-07-05T07:35:29.941Z,8.90
2018-07-05T07:36:30.077Z,9.60
2018-07-05T07:37:30.241Z,8.90
2018-07-05T07:38:30.359Z,9.00
2018-07-05T07:39:30.504Z,10.40
2018-07-05T07:40:30.636Z,22.80
2018-07-05T07:41:30.787Z,22.00
2018-07-05T07:42:30.941Z,29.60
2018-07-05T07:43:31.081Z,27.00
2018-07-05T07:44:31.224Z,30.10
2018-07-05T07:45:31.466Z,10.20
2018-07-05T07:46:31.516Z,10.80
2018-07-05T07:47:31.655Z,16.90
2018-07-05T07:48:31.795Z,12.50
2018-07-05T07:49:31.944Z,11.60
2018-07-05T07:50:32.087Z,10.90
2018-07-05T07:51:32.265Z,24.50
2018-07-05T07:52:32.404Z,10.70
2018-07-05T07:53:32.552Z,10.20
2018-07-05T07:54:32.707Z,15.60
2018-07-05T07:55:32.844Z,10.90
2018-07-05T07:56:33.042Z,9.90
2018-07-05T07:57:33.185Z,22.10
2018-07-05T07:58:33.437Z,18.80
2018-07-05T07:59:33.451Z,10.50
2018-07-05T08:00:33.593Z,10.40
2018-07-05T08:01:33.738Z,11.60
2018-07-05T08:02:33.922Z,11.40
2018-07-05T08:03:34.065Z,12.50
2018-07-05T08:04:34.207Z,11.70
2018-07-05T08:05:34.356Z,12.70
2018-07-05T08:06:34.502Z,12.70
2018-07-05T08:07:35.241Z,13.60
2018-07-05T08:08:34.795Z,11.60
2018-07-05T08:09:34.931Z,11.70
2018-07-05T08:10:35.759Z,12.00
2018-07-05T08:11:35.166Z,12.50
2018-07-05T08:12:35.319Z,13.70
2018-07-05T08:13:35.463Z,16.00
2018-07-05T08:14:35.608Z,16.10
2018-07-05T08:15:35.750Z,14.40
2018-07-05T08:16:35.891Z,13.10
2018-07-05T08:17:36.038Z,13.00
2018-07-05T08:18:36.182Z,12.20
2018-07-05T08:19:36.322Z,13.10
2018-07-05T08:20:36.473Z,14.60
2018-07-05T08:21:36.615Z,13.50
2018-07-05T08:22:36.753Z,15.20
2018-07-05T08:23:36.893Z,14.50
2018-07-05T08:24:37.042Z,15.60
2018-07-05T08:25:37.181Z,12.70
2018-07-05T08:26:37.333Z,13.50
2018-07-05T08:27:37.475Z,12.80
2018-07-05T08:28:37.619Z,12.20
2018-07-05T08:29:37.762Z,12.20
2018-07-05T08:30:37.905Z,11.70
2018-07-05T08:31:38.049Z,12.40
2018-07-05T08:32:38.187Z,11.70
2018-07-05T08:33:38.335Z,11.80
2018-07-05T08:34:38.478Z,11.00
2018-07-05T08:35:38.616Z,11.10
2018-07-05T08:36:38.756Z,9.80
2018-07-05T08:37:38.903Z,10.10
2018-07-05T08:38:39.042Z,9.80
2018-07-05T08:39:39.187Z,10.80
2018-07-05T08:40:39.334Z,9.80
2018-07-05T08:41:39.467Z,10.70
2018-07-05T08:42:39.616Z,10.90
2018-07-05T08:43:39.757Z,10.30
2018-07-05T08:44:39.905Z,10.70
2018-07-05T08:45:40.064Z,8.60
2018-07-05T08:46:40.207Z,8.00
2018-07-05T08:47:40.353Z,8.00
2018-07-05T08:48:40.496Z,7.20
2018-07-05T08:49:40.646Z,7.50
2018-07-05T08:50:40.789Z,8.10
2018-07-05T08:51:40.931Z,7.40
2018-07-05T08:52:41.083Z,7.30
2018-07-05T08:53:41.228Z,7.40
2018-07-05T08:54:41.372Z,7.40
2018-07-05T08:55:41.519Z,6.90
2018-07-05T08:56:41.659Z,7.20
2018-07-05T08:57:41.802Z,7.50
2018-07-05T08:58:41.954Z,6.30
2018-07-05T08:59:42.099Z,6.20
2018-07-05T09:00:42.235Z,6.40
2018-07-05T09:01:42.383Z,6.00
2018-07-05T09:02:42.526Z,6.10
2018-07-05T09:03:42.693Z,5.40
2018-07-05T09:04:42.831Z,5.80
2018-07-05T09:05:42.990Z,5.80
2018-07-05T09:06:43.140Z,6.00
2018-07-05T09:07:43.315Z,6.00
2018-07-05T09:08:43.457Z,7.70
2018-07-05T09:09:43.598Z,7.20
2018-07-05T09:10:43.738Z,5.90
2018-07-05T09:11:43.893Z,6.10
2018-07-05T09:12:44.037Z,7.00
2018-07-05T09:13:44.196Z,6.50
2018-07-05T09:14:44.342Z,5.50
2018-07-05T09:15:44.485Z,5.70
2018-07-05T09:16:44.627Z,5.10
2018-07-05T09:17:44.968Z,4.70
2018-07-05T09:18:44.940Z,5.20
2018-07-05T09:19:45.089Z,5.00
2018-07-05T09:20:45.225Z,5.80
2018-07-05T09:21:45.396Z,5.80
2018-07-05T09:22:45.539Z,5.30
2018-07-05T09:23:45.728Z,5.40
2018-07-05T09:24:45.832Z,5.40
2018-07-05T09:25:45.968Z,5.70
2018-07-05T09:26:46.158Z,5.30
2018-07-05T09:27:46.261Z,6.00
2018-07-05T09:28:46.408Z,5.90
2018-07-05T09:29:46.583Z,5.80
2018-07-05T09:30:46.723Z,5.80
2018-07-05T09:31:46.873Z,5.10
2018-07-05T09:32:47.062Z,5.70
2018-07-05T09:33:47.191Z,5.30
2018-07-05T09:34:47.333Z,5.50
2018-07-05T09:35:47.476Z,5.50
2018-07-05T09:36:47.653Z,4.80
2018-07-05T09:37:47.793Z,5.00
2018-07-05T09:38:47.936Z,5.20
2018-07-05T09:39:48.128Z,4.60
2018-07-05T09:40:48.273Z,4.60
2018-07-05T09:41:48.438Z,4.60
2018-07-05T09:42:48.568Z,4.90
2018-07-05T09:43:48.730Z,4.60
2018-07-05T09:44:48.968Z,4.60
2018-07-05T09:45:48.997Z,4.60
2018-07-05T09:46:49.139Z,4.50
2018-07-05T09:47:49.298Z,4.70
2018-07-05T09:48:49.442Z,4.50
2018-07-05T09:49:49.582Z,4.40
2018-07-05T09:50:49.728Z,4.60
2018-07-05T09:51:49.908Z,4.70
2018-07-05T09:52:50.093Z,4.60
2018-07-05T09:53:50.195Z,4.40
2018-07-05T09:54:50.336Z,5.00
2018-07-05T09:55:51.389Z,5.00
2018-07-05T09:56:50.684Z,5.10
2018-07-05T09:57:50.825Z,5.00
2018-07-05T09:58:51.899Z,4.60
2018-07-05T09:59:51.203Z,4.20
2018-07-05T10:00:51.333Z,3.90
2018-07-05T10:01:51.478Z,4.50
2018-07-05T10:02:51.618Z,4.20
2018-07-05T10:03:51.865Z,6.50
2018-07-05T10:04:51.926Z,6.70
2018-07-05T10:05:52.092Z,4.60
2018-07-05T10:06:52.237Z,4.40
2018-07-05T10:07:52.448Z,4.50
2018-07-05T10:08:52.528Z,4.40
2018-07-05T10:09:52.674Z,4.10
2018-07-05T10:10:52.831Z,4.60
2018-07-05T10:11:52.973Z,4.30
2018-07-05T10:12:53.114Z,4.80
2018-07-05T10:13:53.404Z,4.30
2018-07-05T10:14:53.431Z,4.30
2018-07-05T10:15:53.573Z,4.50
2018-07-05T10:16:53.724Z,4.30
2018-07-05T10:17:53.886Z,4.30
2018-07-05T10:18:54.030Z,4.20
2018-07-05T10:19:54.181Z,4.00
2018-07-05T10:20:54.326Z,3.90
2018-07-05T10:21:54.471Z,4.00
2018-07-05T10:22:54.617Z,3.50
2018-07-05T10:23:54.766Z,5.20
2018-07-05T10:24:54.908Z,4.20
2018-07-05T10:25:55.061Z,3.60
2018-07-05T10:26:55.231Z,3.60
2018-07-05T10:27:55.348Z,3.50
2018-07-05T10:28:55.504Z,3.80
2018-07-05T10:29:55.661Z,3.30
2018-07-05T10:30:55.800Z,3.20
2018-07-05T10:31:55.954Z,5.60
2018-07-05T10:32:56.197Z,4.00
2018-07-05T10:33:56.221Z,3.60
2018-07-05T10:34:56.373Z,3.30
2018-07-05T10:35:56.517Z,3.40
2018-07-05T10:36:56.665Z,4.20
2018-07-05T10:37:57.613Z,6.30
2018-07-05T10:38:56.916Z,5.50
2018-07-05T10:39:57.072Z,4.00
2018-07-05T10:40:57.266Z,5.30
2018-07-05T10:41:57.421Z,7.80
2018-07-05T10:42:57.555Z,4.60
2018-07-05T10:43:57.703Z,4.50
2018-07-05T10:44:57.847Z,3.90
2018-07-05T10:45:58.003Z,3.50
2018-07-05T10:46:58.155Z,3.80
2018-07-05T10:47:58.292Z,3.60
2018-07-05T10:48:58.434Z,3.90
2018-07-05T10:49:58.582Z,3.20
2018-07-05T10:50:58.729Z,4.20
2018-07-05T10:51:58.882Z,13.90
2018-07-05T10:52:59.025Z,6.10
2018-07-05T10:53:59.177Z,8.40
2018-07-05T10:54:59.320Z,6.30
2018-07-05T10:55:59.476Z,3.50
2018-07-05T10:56:59.621Z,3.30
2018-07-05T10:57:59.771Z,4.50
2018-07-05T10:58:59.919Z,3.70
2018-07-05T11:00:00.051Z,3.20
2018-07-05T11:01:00.251Z,3.20
2018-07-05T11:02:00.374Z,3.00
2018-07-05T11:03:00.519Z,2.80
2018-07-05T11:04:00.662Z,3.40
2018-07-05T11:05:00.816Z,4.10
2018-07-05T11:06:00.956Z,10.10
2018-07-05T11:07:01.107Z,4.00
2018-07-05T11:08:01.474Z,3.10
2018-07-05T11:09:01.477Z,2.90
2018-07-05T11:10:01.627Z,3.10
2018-07-05T11:11:01.773Z,3.20
2018-07-05T11:12:01.941Z,3.10
2018-07-05T11:13:02.087Z,3.70
2018-07-05T11:14:02.250Z,3.20
2018-07-05T11:15:02.409Z,3.20
2018-07-05T11:17:35.611Z,3.10
2018-07-05T11:18:35.765Z,3.20
2018-07-05T11:19:35.903Z,3.20
2018-07-05T11:20:36.046Z,3.30
2018-07-05T11:21:36.199Z,3.30
2018-07-05T11:22:36.342Z,3.10
2018-07-05T11:23:36.500Z,2.90
2018-07-05T11:24:36.643Z,2.80
2018-07-05T11:25:36.788Z,3.10
2018-07-05T11:26:36.936Z,2.90
2018-07-05T11:27:37.081Z,2.70
2018-07-05T11:28:37.235Z,3.20
2018-07-05T11:29:37.383Z,2.90
2018-07-05T11:30:37.528Z,2.90
2018-07-05T11:31:37.666Z,2.80
2018-07-05T11:32:37.820Z,2.70
2018-07-05T11:33:37.976Z,2.70
2018-07-05T11:34:38.130Z,2.80
2018-07-05T11:35:38.274Z,2.70
2018-07-05T11:36:38.418Z,2.70
2018-07-05T11:37:38.566Z,2.60
2018-07-05T11:38:38.708Z,2.60
2018-07-05T11:39:38.857Z,2.90
2018-07-05T11:40:38.999Z,2.80
2018-07-05T11:41:39.153Z,2.60
2018-07-05T11:42:39.307Z,2.40
2018-07-05T11:43:39.443Z,2.80
2018-07-05T11:44:39.590Z,2.30
2018-07-05T11:45:39.739Z,2.50
2018-07-05T11:46:39.888Z,2.40
2018-07-05T11:47:40.032Z,2.60
2018-07-05T11:48:40.177Z,3.10
2018-07-05T11:49:40.327Z,2.90
2018-07-05T11:50:40.473Z,2.70
2018-07-05T11:51:40.623Z,3.10
2018-07-05T11:52:40.773Z,4.40
2018-07-05T11:53:40.928Z,2.70
2018-07-05T11:54:41.112Z,2.80
2018-07-05T11:55:41.242Z,2.90
2018-07-05T11:56:41.401Z,2.50
2018-07-05T11:57:41.556Z,2.50
2018-07-05T11:58:41.711Z,2.70
2018-07-05T11:59:41.856Z,2.70
2018-07-05T12:00:42.003Z,2.80
2018-07-05T12:01:42.151Z,9.60
2018-07-05T12:02:42.292Z,2.40
2018-07-05T12:03:42.448Z,2.50
2018-07-05T12:04:42.587Z,4.50
2018-07-05T12:05:42.746Z,5.30
2018-07-05T12:06:42.916Z,5.90
2018-07-05T12:07:43.055Z,3.40
2018-07-05T12:08:43.278Z,3.50
2018-07-05T12:09:43.405Z,5.70
2018-07-05T12:10:43.565Z,4.20
2018-07-05T12:11:43.708Z,5.80
2018-07-05T12:12:43.853Z,4.70
2018-07-05T12:13:44.003Z,5.20
2018-07-05T12:14:44.179Z,6.90
2018-07-05T12:15:44.324Z,4.60
2018-07-05T12:16:44.463Z,4.70
2018-07-05T12:17:44.609Z,5.30
2018-07-05T12:18:44.782Z,6.80
2018-07-05T12:19:44.976Z,5.40
2018-07-05T12:20:45.123Z,5.00
2018-07-05T12:21:45.272Z,5.80
2018-07-05T12:22:45.444Z,7.50
2018-07-05T12:23:45.588Z,5.60
2018-07-05T12:24:45.738Z,16.00
2018-07-05T12:25:45.883Z,10.70
2018-07-05T12:26:46.089Z,8.90
2018-07-05T12:27:46.204Z,7.50
2018-07-05T12:28:46.354Z,8.40
2018-07-05T12:29:46.504Z,6.60
2018-07-05T12:30:46.656Z,6.60
2018-07-05T12:31:46.801Z,6.60
2018-07-05T12:32:46.952Z,6.30
2018-07-05T12:33:47.096Z,6.40
2018-07-05T12:34:47.287Z,5.80
2018-07-05T12:35:47.436Z,5.70
2018-07-05T12:36:47.584Z,5.80
2018-07-05T12:37:47.729Z,5.70
2018-07-05T12:38:47.908Z,6.50
2018-07-05T12:39:48.047Z,6.10
2018-07-05T12:40:48.198Z,6.10
2018-07-05T12:41:48.349Z,6.30
2018-07-05T12:42:48.531Z,7.00
2018-07-05T12:43:48.660Z,7.40
2018-07-05T12:44:48.817Z,10.50
2018-07-05T12:45:49.010Z,10.40
2018-07-05T12:46:49.303Z,8.20
2018-07-05T12:47:49.320Z,10.50
2018-07-05T12:48:49.470Z,7.90
2018-07-05T12:49:49.617Z,7.50
2018-07-05T12:50:49.796Z,7.40
2018-07-05T12:51:49.949Z,6.80
2018-07-05T12:52:50.088Z,7.20
2018-07-05T12:53:50.250Z,7.80
2018-07-05T12:54:50.398Z,7.30
2018-07-05T12:55:50.544Z,7.40
2018-07-05T12:56:50.688Z,7.40
2018-07-05T12:57:50.832Z,7.30
2018-07-05T12:58:50.978Z,7.40
2018-07-05T12:59:51.122Z,7.70
2018-07-05T13:00:51.270Z,7.40
2018-07-05T13:01:51.416Z,7.40
2018-07-05T13:02:51.552Z,7.00
2018-07-05T13:03:51.700Z,7.30
2018-07-05T13:04:51.857Z,7.30
2018-07-05T13:05:51.995Z,7.30
2018-07-05T13:06:52.150Z,7.30
2018-07-05T13:07:52.293Z,7.10
2018-07-05T13:08:52.439Z,7.70
2018-07-05T13:09:52.582Z,7.10
2018-07-05T13:10:52.739Z,7.30
2018-07-05T13:11:52.893Z,7.40
2018-07-05T13:12:53.057Z,7.60
2018-07-05T13:13:53.194Z,7.60
2018-07-05T13:14:53.337Z,7.70
2018-07-05T13:15:53.484Z,8.10
2018-07-05T13:16:53.659Z,8.40
2018-07-05T13:17:53.801Z,8.30
2018-07-05T13:18:53.978Z,16.30
2018-07-05T13:19:54.142Z,22.40
2018-07-05T13:20:54.294Z,31.70